Provo, UT (84603)

9:50 AM MDT on October 21, 2014 (GMT -0600)
Sunset | Change Station
CLOSE
Current Station
Personal Weather Station
Location: Provo, UT
Elevation: 4505 ft
Nearby Weather Stations

Elev 4505 ft 40.23 °N, 111.70 °W | Updated 1 second ago

Mostly Cloudy
Mostly Cloudy
62.4 °F
Feels Like 62.4 °F
N
8.1
Wind Variable Wind from ESE
Gusts 8.1 mph

Today
High -- | Low -- °F
--% Chance of Precip.
Yesterday
High -- | Low -- °F
Precip. -- in
7:44 AM 6:38 PM
Waning Crescent, 5% visible
Pressure 29.96 in
Visibility 10.0 miles
Clouds Mostly Cloudy 7000 ft
Dew Point 42 °F
Humidity 48%
Rainfall 0.00 in
Snow Depth 1 in
UV 0 out of 12
Pollen 2.10 out of 12
Air Quality Not available.
Flu Activity Sporadic
METAR KPVU 211453Z 08004KT 10SM BKN070 12/04 A2996 RMK LTG DSNT NE-SE

More Conditions Fewer Conditions

Pressure 29.96 in
Visibility 10.0 miles
Clouds Mostly Cloudy 7000 ft
Dew Point 42 °F
Humidity 48%
Rainfall 0.00 in
Snow Depth 1 in
UV 0 out of 12
Pollen 2.10 out of 12
Air Quality Not available.
Flu Activity Sporadic
METAR KPVU 211453Z 08004KT 10SM BKN070 12/04 A2996 RMK LTG DSNT NE-SE

More Conditions Fewer Conditions

Nowcast | as of 9:12 am MDT on October 21, 2014

Isolated showers and thunderstorms continue along and ahead of a weak cold front moving through northern Utah. These storms are currently along the Wasatch front from Ogden northward. Some rain...moderate wind gusts and occasional lightning are possible with these storms which are moving to the northeast at around 15-20 mph.

×

10-Day Weather Forecast

Almanac

Astronomy

Oct. 21, 2014 Rise Set
Actual Time 7:44 AM MDT 6:38 PM MDT
Civil Twilight 7:16 AM MDT 7:05 PM MDT
Nautical Twilight 6:44 AM MDT 7:37 PM MDT
Astronomical Twilight 6:13 AM MDT 8:08 PM MDT
Moon 5:31 AM MDT 5:34 PM MDT
Length of Visible Light 11h 49m
Length of Day
10h 54m
Tomorrow will be 2m 30s shorter.
Waning Crescent, 5% of the Moon is Illuminated
Today
Waning Crescent
Oct 23
New
Oct 30
First Quarter
Nov 6
Full
Nov 14
Last Quarter

Today's Extremes

State Highs State Lows

Community

WunderPhotos

Upload Photos

1,763,700 photos uploaded!

WunderBlogs® & News

Nearby

Snow Depth

Station Depth Elevation
Cascade Mountain 1 in 7768 ft
Payson R.S. 0 in 8050 ft
Daniels-Strawberry 0 in 8000 ft
Strawberry Divide 0 in 8400 ft
Brighton 1 in 8750 ft

Earthquake Activity

City Distance Mag. Time & Date
No recent earthquake activity has been reported nearby.
Minimum magnitude displayed is 2.5.

Coastal Water Temperatures

Place Temperature
No Stations Reporting

Nearby Weather Stations